Filia Ariea — PIET — position and weather

sailwx.info

Track history (hours):
 
Tides and Currents Weather Stations Pressure Air Temp Water Temp Dewpoint Dewpoint Depression Visibility Wind Speed Wind Dir Waves Ship Positions

Filia Ariea

Last reported at 2014-Sep-20 07:33 UTC. Time now 2014-Sep-20 07:56 UTC.
Position N 55°18' E 012°38'.

Length 90 m; draft 4.6 m.

Type: Cargo ship. MMSI: 244662000.

Date/timePositionNaut miles runAvg speedWind from/ knotsBaromVisibWave heightAir tempDewpointWater temp
2014-Sep-20 07:33N 55°18' E 012°38'1110.7
2014-Sep-20 06:33N 55°28' E 012°41'1110.6
2014-Sep-20 05:33N 55°39' E 012°41'1110.7
2014-Sep-20 04:33N 55°50' E 012°40'1110.7
2014-Sep-20 03:33N 56°00' E 012°38'9 9.3
2014-Sep-20 02:33N 56°08' E 012°29'1110.6
2014-Sep-20 01:33N 56°18' E 012°21'1111.2
2014-Sep-20 00:33N 56°28' E 012°13'1110.9
2014-Sep-19 23:33N 56°38' E 012°05'1111.0
2014-Sep-19 22:33N 56°48' E 011°55'1010.4
2014-Sep-19 21:33N 56°56' E 011°44'1110.8
2014-Sep-19 20:33N 57°06' E 011°35'1110.6
2014-Sep-19 19:33N 57°15' E 011°25'1110.7
2014-Sep-19 18:33N 57°24' E 011°14'1211.0
2014-Sep-19 17:30N 57°33' E 011°02'1211.2
2014-Sep-19 16:25N 57°43' E 010°49'13910.0
2014-Sep-19 02:30N 58°02' E 006°30'1010.9
2014-Sep-19 01:33N 58°10' E 006°18'9 9.2
2014-Sep-19 00:33N 58°20' E 006°15'0 0.2
2014-Sep-18 23:22N 58°20' E 006°15'0 0.0
2014-Sep-18 21:24N 58°20' E 006°15'0 0.0
2014-Sep-18 15:31N 58°20' E 006°16'0 0.0
2014-Sep-18 10:05N 58°20' E 006°16'0 0.0
2014-Sep-18 09:07N 58°20' E 006°16'0 0.0
2014-Sep-18 05:17N 58°20' E 006°16'0 0.0
2014-Sep-18 04:32N 58°20' E 006°16'1 0.2
2014-Sep-17 23:33N 58°19' E 006°15'1110.7
2014-Sep-17 22:33N 58°09' E 006°08'320 9.9
2014-Sep-16 14:15N 53°48' E 000°35'811.0
2014-Sep-16 13:33N 53°42' E 000°27'1111.1
2014-Sep-16 12:33N 53°33' E 000°16'1111.1
2014-Sep-16 11:33N 53°36' W 000°03'1110.6
2014-Sep-16 10:34N 53°43' W 000°15'2 1.8
2014-Sep-16 09:30N 53°45' W 000°17'0 0.0
2014-Sep-16 08:24N 53°45' W 000°17'0 0.0
2014-Sep-16 07:29N 53°45' W 000°17'0 0.0
2014-Sep-16 06:26N 53°45' W 000°17'0 0.0
2014-Sep-16 05:28N 53°45' W 000°17'0 0.0
2014-Sep-16 04:19N 53°45' W 000°17'0 0.0
2014-Sep-16 03:19N 53°45' W 000°17'0 0.0
2014-Sep-16 02:30N 53°45' W 000°17'0 0.0
2014-Sep-16 01:06N 53°45' W 000°17'0 0.0
2014-Sep-16 00:17N 53°45' W 000°17'0 0.0
2014-Sep-15 23:23N 53°45' W 000°17'0 0.0
2014-Sep-15 22:31N 53°45' W 000°17'0 0.0
2014-Sep-15 21:25N 53°45' W 000°17'0 0.0
2014-Sep-15 20:15N 53°45' W 000°17'0 0.0
2014-Sep-15 18:18N 53°45' W 000°17'0 0.0
2014-Sep-15 17:32N 53°45' W 000°17'0 0.0
2014-Sep-15 16:23N 53°45' W 000°17'0 0.0
2014-Sep-15 15:31N 53°45' W 000°17'0 0.0
2014-Sep-15 13:15N 53°45' W 000°17'0 0.0
2014-Sep-15 10:11N 53°45' W 000°17'0 0.0
2014-Sep-15 07:22N 53°45' W 000°17'0 0.0
2014-Sep-15 06:34N 53°45' W 000°17'0 0.0
2014-Sep-15 05:12N 53°45' W 000°17'0 0.0
2014-Sep-15 04:18N 53°45' W 000°17'0 0.0
2014-Sep-15 03:32N 53°45' W 000°17'0 0.0
2014-Sep-15 02:26N 53°45' W 000°17'0 0.0
2014-Sep-15 01:31N 53°45' W 000°17'0 0.0
2014-Sep-15 00:28N 53°45' W 000°17'0 0.0
2014-Sep-14 22:24N 53°45' W 000°17'0 0.0
2014-Sep-14 21:33N 53°45' W 000°17'0 0.0
2014-Sep-14 20:32N 53°45' W 000°17'0 0.0
2014-Sep-14 19:20N 53°45' W 000°17'0 0.0
2014-Sep-14 18:28N 53°45' W 000°17'0 0.0
2014-Sep-14 17:25N 53°45' W 000°17'0 0.0
2014-Sep-14 16:34N 53°45' W 000°17'0 0.0
2014-Sep-14 15:24N 53°45' W 000°17'0 0.0
2014-Sep-14 14:33N 53°45' W 000°17'0 0.0
2014-Sep-14 13:29N 53°45' W 000°17'0 0.0
2014-Sep-14 12:23N 53°45' W 000°17'0 0.0
2014-Sep-14 11:31N 53°45' W 000°17'0 0.0
2014-Sep-14 10:22N 53°45' W 000°17'0 0.0
2014-Sep-14 09:30N 53°45' W 000°17'0 0.0
2014-Sep-14 08:33N 53°45' W 000°17'0 0.3
2014-Sep-14 07:33N 53°45' W 000°18'9 8.8
2014-Sep-14 06:34N 53°38' W 000°08'1212.2
2014-Sep-14 05:33N 53°33' E 000°10'5 5.3
2014-Sep-14 04:33N 53°31' E 000°19'8 7.8
2014-Sep-14 03:32N 53°27' E 000°30'6 5.8
2014-Sep-14 02:32N 53°24' E 000°39'28 5.7
2014-Sep-13 21:33N 53°04' E 001°12'6 5.9
2014-Sep-13 20:33N 53°01' E 001°20'7 6.5
2014-Sep-13 19:33N 52°57' E 001°29'7 7.3
2014-Sep-13 18:33N 52°54' E 001°40'1110.7
2014-Sep-13 17:33N 52°49' E 001°56'7111.4
2014-Sep-13 11:20N 52°09' E 003°31'911.3
2014-Sep-13 10:33N 52°05' E 003°44'1211.6
2014-Sep-13 09:34N 52°00' E 004°01'1312.9
2014-Sep-13 08:33N 51°54' E 004°19'6 5.3
2014-Sep-13 07:31N 51°54' E 004°28'0 0.0
2014-Sep-13 06:28N 51°54' E 004°28'0 0.0
2014-Sep-13 05:24N 51°54' E 004°28'0 0.0
2014-Sep-13 03:25N 51°54' E 004°28'0 0.0
2014-Sep-13 02:32N 51°54' E 004°28'0 0.0
2014-Sep-13 01:10N 51°54' E 004°28'0 0.0
2014-Sep-12 23:18N 51°54' E 004°28'1 1.9
2014-Sep-12 22:33N 51°53' E 004°27'0 0.2
2014-Sep-12 21:33N 51°53' E 004°26'0 0.0
2014-Sep-12 20:33N 51°53' E 004°26'0 0.0
2014-Sep-12 19:33N 51°53' E 004°26'0 0.0
2014-Sep-12 18:33N 51°53' E 004°26'0 0.0
2014-Sep-12 17:33N 51°53' E 004°26'0 0.0
2014-Sep-12 16:33N 51°53' E 004°26'1 0.8
2014-Sep-12 15:33N 51°54' E 004°26'1110.6
2014-Sep-12 14:33N 51°57' E 004°10'1110.5
2014-Sep-12 13:33N 52°00' E 003°53'1211.5
2014-Sep-12 12:33N 52°05' E 003°36'1211.7
2014-Sep-12 11:33N 52°10' E 003°19'6212.4
2014-Sep-12 06:33N 52°46' E 001°57'1111.3
2014-Sep-12 05:33N 52°53' E 001°42'1010.2
2014-Sep-12 04:33N 52°59' E 001°28'10 9.8
2014-Sep-12 03:33N 53°04' E 001°14'2110.0
2014-Sep-12 01:24N 53°19' E 000°48'910.4
2014-Sep-12 00:32N 53°24' E 000°35'1110.9
2014-Sep-11 23:32N 53°30' E 000°20'1312.7
2014-Sep-11 22:33N 53°35' E 000°01'1514.5
2014-Sep-11 21:33N 53°43' W 000°19'1110.8
2014-Sep-11 20:33N 53°43' W 000°37'9 6.7
2014-Sep-11 19:16N 53°41' W 000°51'1 1.2
2014-Sep-11 18:23N 53°42' W 000°52'0 0.0
2014-Sep-11 06:30N 53°42' W 000°52'0 0.0
2014-Sep-11 02:13N 53°42' W 000°52'0 0.0
2014-Sep-10 21:20N 53°42' W 000°52'0 0.0
2014-Sep-10 19:22N 53°42' W 000°52'0 0.0
2014-Sep-10 08:09N 53°42' W 000°52'  
Track history (hours):
 
Tides and Currents Weather Stations Pressure Air Temp Water Temp Dewpoint Dewpoint Depression Visibility Wind Speed Wind Dir Waves Ship Positions

Filia Ariea

Last reported at 2014-Sep-20 07:33 UTC. Time now 2014-Sep-20 07:56 UTC.
Position N 55°18' E 012°38'.

Length 90 m; draft 4.6 m.

Type: Cargo ship. MMSI: 244662000.

Date/timePositionNaut miles runAvg speedWind from/ knotsBaromVisibWave heightAir tempDewpointWater temp
2014-Sep-20 07:33N 55°18' E 012°38'1110.7
2014-Sep-20 06:33N 55°28' E 012°41'1110.6
2014-Sep-20 05:33N 55°39' E 012°41'1110.7
2014-Sep-20 04:33N 55°50' E 012°40'1110.7
2014-Sep-20 03:33N 56°00' E 012°38'9 9.3
2014-Sep-20 02:33N 56°08' E 012°29'1110.6
2014-Sep-20 01:33N 56°18' E 012°21'1111.2
2014-Sep-20 00:33N 56°28' E 012°13'1110.9
2014-Sep-19 23:33N 56°38' E 012°05'1111.0
2014-Sep-19 22:33N 56°48' E 011°55'1010.4
2014-Sep-19 21:33N 56°56' E 011°44'1110.8
2014-Sep-19 20:33N 57°06' E 011°35'1110.6
2014-Sep-19 19:33N 57°15' E 011°25'1110.7
2014-Sep-19 18:33N 57°24' E 011°14'1211.0
2014-Sep-19 17:30N 57°33' E 011°02'1211.2
2014-Sep-19 16:25N 57°43' E 010°49'13910.0
2014-Sep-19 02:30N 58°02' E 006°30'1010.9
2014-Sep-19 01:33N 58°10' E 006°18'9 9.2
2014-Sep-19 00:33N 58°20' E 006°15'0 0.2
2014-Sep-18 23:22N 58°20' E 006°15'0 0.0
2014-Sep-18 21:24N 58°20' E 006°15'0 0.0
2014-Sep-18 15:31N 58°20' E 006°16'0 0.0
2014-Sep-18 10:05N 58°20' E 006°16'0 0.0
2014-Sep-18 09:07N 58°20' E 006°16'0 0.0
2014-Sep-18 05:17N 58°20' E 006°16'0 0.0
2014-Sep-18 04:32N 58°20' E 006°16'1 0.2
2014-Sep-17 23:33N 58°19' E 006°15'1110.7
2014-Sep-17 22:33N 58°09' E 006°08'320 9.9
2014-Sep-16 14:15N 53°48' E 000°35'811.0
2014-Sep-16 13:33N 53°42' E 000°27'1111.1
2014-Sep-16 12:33N 53°33' E 000°16'1111.1
2014-Sep-16 11:33N 53°36' W 000°03'1110.6
2014-Sep-16 10:34N 53°43' W 000°15'2 1.8
2014-Sep-16 09:30N 53°45' W 000°17'0 0.0
2014-Sep-16 08:24N 53°45' W 000°17'0 0.0
2014-Sep-16 07:29N 53°45' W 000°17'0 0.0
2014-Sep-16 06:26N 53°45' W 000°17'0 0.0
2014-Sep-16 05:28N 53°45' W 000°17'0 0.0
2014-Sep-16 04:19N 53°45' W 000°17'0 0.0
2014-Sep-16 03:19N 53°45' W 000°17'0 0.0
2014-Sep-16 02:30N 53°45' W 000°17'0 0.0
2014-Sep-16 01:06N 53°45' W 000°17'0 0.0
2014-Sep-16 00:17N 53°45' W 000°17'0 0.0
2014-Sep-15 23:23N 53°45' W 000°17'0 0.0
2014-Sep-15 22:31N 53°45' W 000°17'0 0.0
2014-Sep-15 21:25N 53°45' W 000°17'0 0.0
2014-Sep-15 20:15N 53°45' W 000°17'0 0.0
2014-Sep-15 18:18N 53°45' W 000°17'0 0.0
2014-Sep-15 17:32N 53°45' W 000°17'0 0.0
2014-Sep-15 16:23N 53°45' W 000°17'0 0.0
2014-Sep-15 15:31N 53°45' W 000°17'0 0.0
2014-Sep-15 13:15N 53°45' W 000°17'0 0.0
2014-Sep-15 10:11N 53°45' W 000°17'0 0.0
2014-Sep-15 07:22N 53°45' W 000°17'0 0.0
2014-Sep-15 06:34N 53°45' W 000°17'0 0.0
2014-Sep-15 05:12N 53°45' W 000°17'0 0.0
2014-Sep-15 04:18N 53°45' W 000°17'0 0.0
2014-Sep-15 03:32N 53°45' W 000°17'0 0.0
2014-Sep-15 02:26N 53°45' W 000°17'0 0.0
2014-Sep-15 01:31N 53°45' W 000°17'0 0.0
2014-Sep-15 00:28N 53°45' W 000°17'0 0.0
2014-Sep-14 22:24N 53°45' W 000°17'0 0.0
2014-Sep-14 21:33N 53°45' W 000°17'0 0.0
2014-Sep-14 20:32N 53°45' W 000°17'0 0.0
2014-Sep-14 19:20N 53°45' W 000°17'0 0.0
2014-Sep-14 18:28N 53°45' W 000°17'0 0.0
2014-Sep-14 17:25N 53°45' W 000°17'0 0.0
2014-Sep-14 16:34N 53°45' W 000°17'0 0.0
2014-Sep-14 15:24N 53°45' W 000°17'0 0.0
2014-Sep-14 14:33N 53°45' W 000°17'0 0.0
2014-Sep-14 13:29N 53°45' W 000°17'0 0.0
2014-Sep-14 12:23N 53°45' W 000°17'0 0.0
2014-Sep-14 11:31N 53°45' W 000°17'0 0.0
2014-Sep-14 10:22N 53°45' W 000°17'0 0.0
2014-Sep-14 09:30N 53°45' W 000°17'0 0.0
2014-Sep-14 08:33N 53°45' W 000°17'0 0.3
2014-Sep-14 07:33N 53°45' W 000°18'9 8.8
2014-Sep-14 06:34N 53°38' W 000°08'1212.2
2014-Sep-14 05:33N 53°33' E 000°10'5 5.3
2014-Sep-14 04:33N 53°31' E 000°19'8 7.8
2014-Sep-14 03:32N 53°27' E 000°30'6 5.8
2014-Sep-14 02:32N 53°24' E 000°39'28 5.7
2014-Sep-13 21:33N 53°04' E 001°12'6 5.9
2014-Sep-13 20:33N 53°01' E 001°20'7 6.5
2014-Sep-13 19:33N 52°57' E 001°29'7 7.3
2014-Sep-13 18:33N 52°54' E 001°40'1110.7
2014-Sep-13 17:33N 52°49' E 001°56'7111.4
2014-Sep-13 11:20N 52°09' E 003°31'911.3
2014-Sep-13 10:33N 52°05' E 003°44'1211.6
2014-Sep-13 09:34N 52°00' E 004°01'1312.9
2014-Sep-13 08:33N 51°54' E 004°19'6 5.3
2014-Sep-13 07:31N 51°54' E 004°28'0 0.0
2014-Sep-13 06:28N 51°54' E 004°28'0 0.0
2014-Sep-13 05:24N 51°54' E 004°28'0 0.0
2014-Sep-13 03:25N 51°54' E 004°28'0 0.0
2014-Sep-13 02:32N 51°54' E 004°28'0 0.0
2014-Sep-13 01:10N 51°54' E 004°28'0 0.0
2014-Sep-12 23:18N 51°54' E 004°28'1 1.9
2014-Sep-12 22:33N 51°53' E 004°27'0 0.2
2014-Sep-12 21:33N 51°53' E 004°26'0 0.0
2014-Sep-12 20:33N 51°53' E 004°26'0 0.0
2014-Sep-12 19:33N 51°53' E 004°26'0 0.0
2014-Sep-12 18:33N 51°53' E 004°26'0 0.0
2014-Sep-12 17:33N 51°53' E 004°26'0 0.0
2014-Sep-12 16:33N 51°53' E 004°26'1 0.8
2014-Sep-12 15:33N 51°54' E 004°26'1110.6
2014-Sep-12 14:33N 51°57' E 004°10'1110.5
2014-Sep-12 13:33N 52°00' E 003°53'1211.5
2014-Sep-12 12:33N 52°05' E 003°36'1211.7
2014-Sep-12 11:33N 52°10' E 003°19'6212.4
2014-Sep-12 06:33N 52°46' E 001°57'1111.3
2014-Sep-12 05:33N 52°53' E 001°42'1010.2
2014-Sep-12 04:33N 52°59' E 001°28'10 9.8
2014-Sep-12 03:33N 53°04' E 001°14'2110.0
2014-Sep-12 01:24N 53°19' E 000°48'910.4
2014-Sep-12 00:32N 53°24' E 000°35'1110.9
2014-Sep-11 23:32N 53°30' E 000°20'1312.7
2014-Sep-11 22:33N 53°35' E 000°01'1514.5
2014-Sep-11 21:33N 53°43' W 000°19'1110.8
2014-Sep-11 20:33N 53°43' W 000°37'9 6.7
2014-Sep-11 19:16N 53°41' W 000°51'1 1.2
2014-Sep-11 18:23N 53°42' W 000°52'0 0.0
2014-Sep-11 06:30N 53°42' W 000°52'0 0.0
2014-Sep-11 02:13N 53°42' W 000°52'0 0.0
2014-Sep-10 21:20N 53°42' W 000°52'0 0.0
2014-Sep-10 19:22N 53°42' W 000°52'0 0.0
2014-Sep-10 08:09N 53°42' W 000°52'  

Dump ship's entire track history